Terminal Aerodrome Forecast
Issued by NWS Bismarck, ND

Home | Current Version | Previous Version | Text Only | Print | Product List | Glossary On
Versions: 1 2 3 4 5 6 7 8 9 10 11 12 13 14 15 16
034
FTUS43 KBIS 241722
TAFISN
TAF
KISN 241722Z 2418/2518 30012G20KT P6SM SCT060
     FM250100 33007KT P6SM SCT080
     FM250400 VRB04KT P6SM SKC
     FM251200 15005KT P6SM SCT100=

USA.gov is the U.S. government's official web portal to all federal, state and local government web resources and services.